sensor_id;sensor_type;location;lat;lon;timestamp;pressure;altitude;pressure_sealevel;temperature;humidity
7906;BME280;13291;40.472;-3.878;2023-04-21T00:00:49;52957.97;;;-139.96;29.29
7906;BME280;13291;40.472;-3.878;2023-04-21T00:03:16;52979.97;;;-139.96;29.14
7906;BME280;13291;40.472;-3.878;2023-04-21T00:05:44;52959.97;;;-139.96;29.20
7906;BME280;13291;40.472;-3.878;2023-04-21T00:08:11;52971.97;;;-139.96;29.04
7906;BME280;13291;40.472;-3.878;2023-04-21T00:10:38;52959.97;;;-139.96;28.93
7906;BME280;13291;40.472;-3.878;2023-04-21T00:13:06;52977.97;;;-139.96;28.67
7906;BME280;13291;40.472;-3.878;2023-04-21T00:15:33;52977.97;;;-139.96;28.47
7906;BME280;13291;40.472;-3.878;2023-04-21T00:18:00;52977.97;;;-139.96;28.41
7906;BME280;13291;40.472;-3.878;2023-04-21T00:20:28;52973.97;;;-139.96;28.19
7906;BME280;13291;40.472;-3.878;2023-04-21T00:22:55;52983.97;;;-139.96;27.95
7906;BME280;13291;40.472;-3.878;2023-04-21T00:25:22;53001.97;;;-139.96;28.08
7906;BME280;13291;40.472;-3.878;2023-04-21T00:27:50;52973.97;;;-139.96;28.21
7906;BME280;13291;40.472;-3.878;2023-04-21T00:30:18;52951.97;;;-139.96;28.31
7906;BME280;13291;40.472;-3.878;2023-04-21T00:32:45;52973.97;;;-139.96;28.12
7906;BME280;13291;40.472;-3.878;2023-04-21T00:35:12;52963.97;;;-139.96;28.27
7906;BME280;13291;40.472;-3.878;2023-04-21T00:37:38;52969.97;;;-139.96;28.29
7906;BME280;13291;40.472;-3.878;2023-04-21T00:40:07;52975.97;;;-139.96;28.30
7906;BME280;13291;40.472;-3.878;2023-04-21T00:42:34;52955.97;;;-139.96;28.29
7906;BME280;13291;40.472;-3.878;2023-04-21T00:45:01;52985.97;;;-139.96;28.24
7906;BME280;13291;40.472;-3.878;2023-04-21T00:47:29;52941.97;;;-139.96;28.20
7906;BME280;13291;40.472;-3.878;2023-04-21T00:49:56;52979.97;;;-139.96;28.44
7906;BME280;13291;40.472;-3.878;2023-04-21T00:52:24;52989.97;;;-139.96;28.20
7906;BME280;13291;40.472;-3.878;2023-04-21T00:54:51;52985.97;;;-139.96;28.31
7906;BME280;13291;40.472;-3.878;2023-04-21T00:57:19;52961.97;;;-139.96;28.55
7906;BME280;13291;40.472;-3.878;2023-04-21T00:59:46;52985.97;;;-139.96;28.46
7906;BME280;13291;40.472;-3.878;2023-04-21T01:02:14;52985.97;;;-139.96;28.19
7906;BME280;13291;40.472;-3.878;2023-04-21T01:04:43;52971.97;;;-139.96;28.07
7906;BME280;13291;40.472;-3.878;2023-04-21T01:07:10;52975.97;;;-139.96;28.23
7906;BME280;13291;40.472;-3.878;2023-04-21T01:09:37;52995.97;;;-139.96;28.34
7906;BME280;13291;40.472;-3.878;2023-04-21T01:12:06;53034.00;;;-139.96;28.05
7906;BME280;13291;40.472;-3.878;2023-04-21T01:14:33;52953.97;;;-139.96;27.98
7906;BME280;13291;40.472;-3.878;2023-04-21T01:17:00;52965.97;;;-139.96;28.39
7906;BME280;13291;40.472;-3.878;2023-04-21T01:19:31;53024.00;;;-139.96;28.09
7906;BME280;13291;40.472;-3.878;2023-04-21T01:22:01;52973.97;;;-139.96;28.12
7906;BME280;13291;40.472;-3.878;2023-04-21T01:24:35;52979.97;;;-139.96;28.12
7906;BME280;13291;40.472;-3.878;2023-04-21T01:27:02;52969.97;;;-139.96;28.19
7906;BME280;13291;40.472;-3.878;2023-04-21T01:29:32;52993.97;;;-139.96;28.12
7906;BME280;13291;40.472;-3.878;2023-04-21T01:32:03;52997.97;;;-139.96;28.42
7906;BME280;13291;40.472;-3.878;2023-04-21T01:34:30;52989.97;;;-139.96;28.53
7906;BME280;13291;40.472;-3.878;2023-04-21T01:36:57;52983.97;;;-139.96;28.48
7906;BME280;13291;40.472;-3.878;2023-04-21T01:39:26;52991.97;;;-139.96;28.05
7906;BME280;13291;40.472;-3.878;2023-04-21T01:41:53;52973.97;;;-139.96;28.22
7906;BME280;13291;40.472;-3.878;2023-04-21T01:44:23;53007.97;;;-139.96;28.33
7906;BME280;13291;40.472;-3.878;2023-04-21T01:46:50;52989.97;;;-139.96;28.29
7906;BME280;13291;40.472;-3.878;2023-04-21T01:49:17;53014.00;;;-139.96;28.36
7906;BME280;13291;40.472;-3.878;2023-04-21T01:51:44;53014.00;;;-139.96;28.15
7906;BME280;13291;40.472;-3.878;2023-04-21T01:54:11;52981.97;;;-139.96;28.09
7906;BME280;13291;40.472;-3.878;2023-04-21T01:56:39;52975.97;;;-139.96;27.93
7906;BME280;13291;40.472;-3.878;2023-04-21T01:59:06;52973.97;;;-139.96;28.26
7906;BME280;13291;40.472;-3.878;2023-04-21T02:01:33;52995.97;;;-139.96;28.53
7906;BME280;13291;40.472;-3.878;2023-04-21T02:04:00;52991.97;;;-139.96;28.03
7906;BME280;13291;40.472;-3.878;2023-04-21T02:06:27;53001.97;;;-139.96;28.01
7906;BME280;13291;40.472;-3.878;2023-04-21T02:08:55;52969.97;;;-139.96;28.12
7906;BME280;13291;40.472;-3.878;2023-04-21T02:11:23;52957.97;;;-139.96;28.46
7906;BME280;13291;40.472;-3.878;2023-04-21T02:13:52;52987.97;;;-139.96;28.38
7906;BME280;13291;40.472;-3.878;2023-04-21T02:16:19;53018.00;;;-139.96;28.32
7906;BME280;13291;40.472;-3.878;2023-04-21T02:18:50;52929.97;;;-139.96;28.60
7906;BME280;13291;40.472;-3.878;2023-04-21T02:21:18;52977.97;;;-139.96;28.58
7906;BME280;13291;40.472;-3.878;2023-04-21T02:23:45;52997.97;;;-139.96;28.57
7906;BME280;13291;40.472;-3.878;2023-04-21T02:26:12;52979.97;;;-139.96;28.48
7906;BME280;13291;40.472;-3.878;2023-04-21T02:28:39;52955.97;;;-139.96;28.72
7906;BME280;13291;40.472;-3.878;2023-04-21T02:31:07;52991.97;;;-139.96;29.01
7906;BME280;13291;40.472;-3.878;2023-04-21T02:33:34;53009.97;;;-139.96;29.23
7906;BME280;13291;40.472;-3.878;2023-04-21T02:36:01;53009.97;;;-139.96;29.27
7906;BME280;13291;40.472;-3.878;2023-04-21T02:38:28;52997.97;;;-139.96;28.86
7906;BME280;13291;40.472;-3.878;2023-04-21T02:40:55;53009.97;;;-139.96;29.90
7906;BME280;13291;40.472;-3.878;2023-04-21T02:43:22;52999.97;;;-139.96;29.30
7906;BME280;13291;40.472;-3.878;2023-04-21T02:45:49;52981.97;;;-139.96;30.24
7906;BME280;13291;40.472;-3.878;2023-04-21T02:48:17;53020.00;;;-139.96;29.91
7906;BME280;13291;40.472;-3.878;2023-04-21T02:50:47;53014.00;;;-139.96;29.97
7906;BME280;13291;40.472;-3.878;2023-04-21T02:53:14;53012.00;;;-139.96;29.55
7906;BME280;13291;40.472;-3.878;2023-04-21T02:55:41;52987.97;;;-139.96;29.49
7906;BME280;13291;40.472;-3.878;2023-04-21T02:58:08;52975.97;;;-139.96;29.47
7906;BME280;13291;40.472;-3.878;2023-04-21T03:00:35;53036.00;;;-139.96;29.08
7906;BME280;13291;40.472;-3.878;2023-04-21T03:03:02;53003.97;;;-139.96;29.62
7906;BME280;13291;40.472;-3.878;2023-04-21T03:05:30;53005.97;;;-139.96;29.95
7906;BME280;13291;40.472;-3.878;2023-04-21T03:07:57;52981.97;;;-139.96;29.38
7906;BME280;13291;40.472;-3.878;2023-04-21T03:10:24;53030.00;;;-139.96;29.15
7906;BME280;13291;40.472;-3.878;2023-04-21T03:12:51;53005.97;;;-139.96;29.53
7906;BME280;13291;40.472;-3.878;2023-04-21T03:15:18;53032.00;;;-139.96;29.92
7906;BME280;13291;40.472;-3.878;2023-04-21T03:17:45;53026.00;;;-139.96;30.26
7906;BME280;13291;40.472;-3.878;2023-04-21T03:20:12;53018.00;;;-139.96;30.15
7906;BME280;13291;40.472;-3.878;2023-04-21T03:22:40;52997.97;;;-139.96;30.34
7906;BME280;13291;40.472;-3.878;2023-04-21T03:25:07;53005.97;;;-139.96;30.39
7906;BME280;13291;40.472;-3.878;2023-04-21T03:27:35;53030.00;;;-139.96;30.70
7906;BME280;13291;40.472;-3.878;2023-04-21T03:30:02;53014.00;;;-139.96;30.67
7906;BME280;13291;40.472;-3.878;2023-04-21T03:32:29;53022.00;;;-139.96;30.83
7906;BME280;13291;40.472;-3.878;2023-04-21T03:34:56;53009.97;;;-139.96;30.45
7906;BME280;13291;40.472;-3.878;2023-04-21T03:37:23;53026.00;;;-139.96;31.11
7906;BME280;13291;40.472;-3.878;2023-04-21T03:39:51;53016.00;;;-139.96;30.95
7906;BME280;13291;40.472;-3.878;2023-04-21T03:42:18;52973.97;;;-139.96;31.03
7906;BME280;13291;40.472;-3.878;2023-04-21T03:44:45;53012.00;;;-139.96;31.04
7906;BME280;13291;40.472;-3.878;2023-04-21T03:47:11;53005.97;;;-139.96;30.78
7906;BME280;13291;40.472;-3.878;2023-04-21T03:49:38;53005.97;;;-139.96;31.11
7906;BME280;13291;40.472;-3.878;2023-04-21T03:52:05;53001.97;;;-139.96;30.84
7906;BME280;13291;40.472;-3.878;2023-04-21T03:54:32;53005.97;;;-139.96;31.37
7906;BME280;13291;40.472;-3.878;2023-04-21T03:57:00;52999.97;;;-139.96;30.97
7906;BME280;13291;40.472;-3.878;2023-04-21T03:59:27;52999.97;;;-139.96;30.87
7906;BME280;13291;40.472;-3.878;2023-04-21T04:01:54;53024.00;;;-139.96;30.79
7906;BME280;13291;40.472;-3.878;2023-04-21T04:04:21;53030.00;;;-139.96;31.18
7906;BME280;13291;40.472;-3.878;2023-04-21T04:06:47;53016.00;;;-139.96;31.47
7906;BME280;13291;40.472;-3.878;2023-04-21T04:09:14;53036.00;;;-139.96;31.16
7906;BME280;13291;40.472;-3.878;2023-04-21T04:11:41;52987.97;;;-139.96;31.59
7906;BME280;13291;40.472;-3.878;2023-04-21T04:14:09;52983.97;;;-139.96;31.59
7906;BME280;13291;40.472;-3.878;2023-04-21T04:16:36;52985.97;;;-139.96;32.00
7906;BME280;13291;40.472;-3.878;2023-04-21T04:19:03;52989.97;;;-139.96;32.08
7906;BME280;13291;40.472;-3.878;2023-04-21T04:21:30;52987.97;;;-139.96;31.83
7906;BME280;13291;40.472;-3.878;2023-04-21T04:23:57;53005.97;;;-139.96;32.12
7906;BME280;13291;40.472;-3.878;2023-04-21T04:26:24;53022.00;;;-139.96;31.80
7906;BME280;13291;40.472;-3.878;2023-04-21T04:28:51;53012.00;;;-139.96;31.97
7906;BME280;13291;40.472;-3.878;2023-04-21T04:31:21;53014.00;;;-139.96;32.21
7906;BME280;13291;40.472;-3.878;2023-04-21T04:33:49;53028.00;;;-139.96;32.44
7906;BME280;13291;40.472;-3.878;2023-04-21T04:36:16;53032.00;;;-139.96;32.44
7906;BME280;13291;40.472;-3.878;2023-04-21T04:38:43;53007.97;;;-139.96;31.56
7906;BME280;13291;40.472;-3.878;2023-04-21T04:41:10;53038.00;;;-139.96;31.60
7906;BME280;13291;40.472;-3.878;2023-04-21T04:43:37;53036.00;;;-139.96;31.45
7906;BME280;13291;40.472;-3.878;2023-04-21T04:46:04;53026.00;;;-139.96;31.50
7906;BME280;13291;40.472;-3.878;2023-04-21T04:48:34;53018.00;;;-139.96;31.97
7906;BME280;13291;40.472;-3.878;2023-04-21T04:51:01;53005.97;;;-139.96;32.02
7906;BME280;13291;40.472;-3.878;2023-04-21T04:53:28;52997.97;;;-139.96;32.08
7906;BME280;13291;40.472;-3.878;2023-04-21T04:55:55;53005.97;;;-139.96;32.21
7906;BME280;13291;40.472;-3.878;2023-04-21T04:58:23;53054.00;;;-139.96;31.59
7906;BME280;13291;40.472;-3.878;2023-04-21T05:00:50;53044.00;;;-139.96;31.39
7906;BME280;13291;40.472;-3.878;2023-04-21T05:03:17;53046.00;;;-139.96;31.86
7906;BME280;13291;40.472;-3.878;2023-04-21T05:05:45;53007.97;;;-139.96;31.70
7906;BME280;13291;40.472;-3.878;2023-04-21T05:08:12;53058.00;;;-139.96;32.07
7906;BME280;13291;40.472;-3.878;2023-04-21T05:10:38;53012.00;;;-139.96;32.07
7906;BME280;13291;40.472;-3.878;2023-04-21T05:13:05;53026.00;;;-139.96;32.41
7906;BME280;13291;40.472;-3.878;2023-04-21T05:15:32;53034.00;;;-139.96;32.07
7906;BME280;13291;40.472;-3.878;2023-04-21T05:17:59;53042.00;;;-139.96;32.00
7906;BME280;13291;40.472;-3.878;2023-04-21T05:20:26;53003.97;;;-139.96;31.53
7906;BME280;13291;40.472;-3.878;2023-04-21T05:22:54;53009.97;;;-139.96;31.45
7906;BME280;13291;40.472;-3.878;2023-04-21T05:25:21;53038.00;;;-139.96;31.50
7906;BME280;13291;40.472;-3.878;2023-04-21T05:27:47;53050.00;;;-139.96;31.78
7906;BME280;13291;40.472;-3.878;2023-04-21T05:30:14;53032.00;;;-139.96;31.69
7906;BME280;13291;40.472;-3.878;2023-04-21T05:32:41;53036.00;;;-139.96;32.08
7906;BME280;13291;40.472;-3.878;2023-04-21T05:35:08;53018.00;;;-139.96;32.49
7906;BME280;13291;40.472;-3.878;2023-04-21T05:37:35;53046.00;;;-139.96;32.91
7906;BME280;13291;40.472;-3.878;2023-04-21T05:40:03;53020.00;;;-139.96;32.61
7906;BME280;13291;40.472;-3.878;2023-04-21T05:42:30;53001.97;;;-139.96;32.61
7906;BME280;13291;40.472;-3.878;2023-04-21T05:44:57;53042.00;;;-139.96;32.84
7906;BME280;13291;40.472;-3.878;2023-04-21T05:47:24;53084.00;;;-139.96;33.57
7906;BME280;13291;40.472;-3.878;2023-04-21T05:49:51;53046.00;;;-139.96;33.26
7906;BME280;13291;40.472;-3.878;2023-04-21T05:52:18;53020.00;;;-139.96;33.41
7906;BME280;13291;40.472;-3.878;2023-04-21T05:54:45;53028.00;;;-139.96;33.33
7906;BME280;13291;40.472;-3.878;2023-04-21T05:57:13;53018.00;;;-139.96;33.68
7906;BME280;13291;40.472;-3.878;2023-04-21T05:59:42;53034.00;;;-139.96;33.68
7906;BME280;13291;40.472;-3.878;2023-04-21T06:02:08;52999.97;;;-139.96;33.54
7906;BME280;13291;40.472;-3.878;2023-04-21T06:04:35;53034.00;;;-139.96;33.83
7906;BME280;13291;40.472;-3.878;2023-04-21T06:07:06;53009.97;;;-139.96;33.57
7906;BME280;13291;40.472;-3.878;2023-04-21T06:09:34;53038.00;;;-139.96;33.63
7906;BME280;13291;40.472;-3.878;2023-04-21T06:12:01;53056.00;;;-139.96;33.15
7906;BME280;13291;40.472;-3.878;2023-04-21T06:14:29;53026.00;;;-139.96;33.57
7906;BME280;13291;40.472;-3.878;2023-04-21T06:16:55;53028.00;;;-139.96;33.35
7906;BME280;13291;40.472;-3.878;2023-04-21T06:19:22;53034.00;;;-139.96;33.41
7906;BME280;13291;40.472;-3.878;2023-04-21T06:21:49;53022.00;;;-139.96;33.71
7906;BME280;13291;40.472;-3.878;2023-04-21T06:24:16;53005.97;;;-139.96;34.05
7906;BME280;13291;40.472;-3.878;2023-04-21T06:26:49;53050.00;;;-139.96;33.72
7906;BME280;13291;40.472;-3.878;2023-04-21T06:29:16;53026.00;;;-139.96;33.61
7906;BME280;13291;40.472;-3.878;2023-04-21T06:31:44;53058.00;;;-139.96;34.09
7906;BME280;13291;40.472;-3.878;2023-04-21T06:34:11;53003.97;;;-139.96;34.18
7906;BME280;13291;40.472;-3.878;2023-04-21T06:36:38;53038.00;;;-139.96;34.07
7906;BME280;13291;40.472;-3.878;2023-04-21T06:39:05;53030.00;;;-139.96;33.98
7906;BME280;13291;40.472;-3.878;2023-04-21T06:41:32;53024.00;;;-139.96;34.47
7906;BME280;13291;40.472;-3.878;2023-04-21T06:43:58;53026.00;;;-139.96;34.86
7906;BME280;13291;40.472;-3.878;2023-04-21T06:46:25;53007.97;;;-139.96;34.86
7906;BME280;13291;40.472;-3.878;2023-04-21T06:48:53;53018.00;;;-139.96;35.16
7906;BME280;13291;40.472;-3.878;2023-04-21T06:51:20;53024.00;;;-139.96;34.28
7906;BME280;13291;40.472;-3.878;2023-04-21T06:53:47;53026.00;;;-139.96;34.74
7906;BME280;13291;40.472;-3.878;2023-04-21T06:56:14;53034.00;;;-139.96;34.95
7906;BME280;13291;40.472;-3.878;2023-04-21T06:58:41;53042.00;;;-139.96;35.36
7906;BME280;13291;40.472;-3.878;2023-04-21T07:01:08;53032.00;;;-139.96;35.15
7906;BME280;13291;40.472;-3.878;2023-04-21T07:03:34;53044.00;;;-139.96;34.47
7906;BME280;13291;40.472;-3.878;2023-04-21T07:06:03;53044.00;;;-139.96;33.16
7906;BME280;13291;40.472;-3.878;2023-04-21T07:08:30;53026.00;;;-139.96;34.59
7906;BME280;13291;40.472;-3.878;2023-04-21T07:10:57;53028.00;;;-139.96;34.83
7906;BME280;13291;40.472;-3.878;2023-04-21T07:13:23;53044.00;;;-139.96;35.09
7906;BME280;13291;40.472;-3.878;2023-04-21T07:15:50;53024.00;;;-139.96;34.91
7906;BME280;13291;40.472;-3.878;2023-04-21T07:18:18;53024.00;;;-139.96;33.92
7906;BME280;13291;40.472;-3.878;2023-04-21T07:20:44;53009.97;;;-139.96;33.07
7906;BME280;13291;40.472;-3.878;2023-04-21T07:23:13;52987.97;;;-139.96;33.07
7906;BME280;13291;40.472;-3.878;2023-04-21T07:25:40;53009.97;;;-139.96;33.16
7906;BME280;13291;40.472;-3.878;2023-04-21T07:28:06;53001.97;;;-139.96;33.85
7906;BME280;13291;40.472;-3.878;2023-04-21T07:30:33;53005.97;;;-139.96;32.82
7906;BME280;13291;40.472;-3.878;2023-04-21T07:33:00;53007.97;;;-139.96;33.07
7906;BME280;13291;40.472;-3.878;2023-04-21T07:35:27;52987.97;;;-139.96;33.15
7906;BME280;13291;40.472;-3.878;2023-04-21T07:37:54;53014.00;;;-139.96;32.94
7906;BME280;13291;40.472;-3.878;2023-04-21T07:40:22;53014.00;;;-139.96;33.34
7906;BME280;13291;40.472;-3.878;2023-04-21T07:42:49;53052.00;;;-139.96;33.09
7906;BME280;13291;40.472;-3.878;2023-04-21T07:45:16;52985.97;;;-139.96;33.53
7906;BME280;13291;40.472;-3.878;2023-04-21T07:47:43;52999.97;;;-139.96;33.30
7906;BME280;13291;40.472;-3.878;2023-04-21T07:50:10;52987.97;;;-139.96;33.82
7906;BME280;13291;40.472;-3.878;2023-04-21T07:52:37;53009.97;;;-139.96;33.41
7906;BME280;13291;40.472;-3.878;2023-04-21T07:55:04;52971.97;;;-139.96;33.56
7906;BME280;13291;40.472;-3.878;2023-04-21T07:57:33;52979.97;;;-139.96;33.80
7906;BME280;13291;40.472;-3.878;2023-04-21T08:00:03;52997.97;;;-139.96;33.69
7906;BME280;13291;40.472;-3.878;2023-04-21T08:02:30;52981.97;;;-139.96;33.87
7906;BME280;13291;40.472;-3.878;2023-04-21T08:04:57;52997.97;;;-139.96;33.99
7906;BME280;13291;40.472;-3.878;2023-04-21T08:07:24;52989.97;;;-139.96;32.27
7906;BME280;13291;40.472;-3.878;2023-04-21T08:09:51;52939.97;;;-139.96;33.08
7906;BME280;13291;40.472;-3.878;2023-04-21T08:12:17;52963.97;;;-139.96;33.18
7906;BME280;13291;40.472;-3.878;2023-04-21T08:14:46;52973.97;;;-139.96;32.65
7906;BME280;13291;40.472;-3.878;2023-04-21T08:17:12;52981.97;;;-139.96;33.08
7906;BME280;13291;40.472;-3.878;2023-04-21T08:19:40;52985.97;;;-139.96;32.86
7906;BME280;13291;40.472;-3.878;2023-04-21T08:22:06;52967.97;;;-139.96;32.53
7906;BME280;13291;40.472;-3.878;2023-04-21T08:24:33;52965.97;;;-139.96;32.62
7906;BME280;13291;40.472;-3.878;2023-04-21T08:27:00;52947.97;;;-139.96;32.56
7906;BME280;13291;40.472;-3.878;2023-04-21T08:29:27;52939.97;;;-139.96;32.57
7906;BME280;13291;40.472;-3.878;2023-04-21T08:31:56;52955.97;;;-139.96;32.44
7906;BME280;13291;40.472;-3.878;2023-04-21T08:34:23;52957.97;;;-139.96;32.61
7906;BME280;13291;40.472;-3.878;2023-04-21T08:36:50;52965.97;;;-139.96;31.96
7906;BME280;13291;40.472;-3.878;2023-04-21T08:39:16;52961.97;;;-139.96;32.14
7906;BME280;13291;40.472;-3.878;2023-04-21T08:41:43;52971.97;;;-139.96;32.72
7906;BME280;13291;40.472;-3.878;2023-04-21T08:44:10;52973.97;;;-139.96;32.78
7906;BME280;13291;40.472;-3.878;2023-04-21T08:46:37;52973.97;;;-139.96;32.86
7906;BME280;13291;40.472;-3.878;2023-04-21T08:49:08;52969.97;;;-139.96;33.50
7906;BME280;13291;40.472;-3.878;2023-04-21T08:51:35;52961.97;;;-139.96;33.85
7906;BME280;13291;40.472;-3.878;2023-04-21T08:54:02;52993.97;;;-139.96;33.46
7906;BME280;13291;40.472;-3.878;2023-04-21T08:56:29;52989.97;;;-139.96;33.45
7906;BME280;13291;40.472;-3.878;2023-04-21T08:58:55;52957.97;;;-139.96;33.37
7906;BME280;13291;40.472;-3.878;2023-04-21T09:01:22;52979.97;;;-139.96;33.55
7906;BME280;13291;40.472;-3.878;2023-04-21T09:03:49;52981.97;;;-139.96;34.47
7906;BME280;13291;40.472;-3.878;2023-04-21T09:06:17;52981.97;;;-139.96;34.12
7906;BME280;13291;40.472;-3.878;2023-04-21T09:08:52;52955.97;;;-139.96;33.44
7906;BME280;13291;40.472;-3.878;2023-04-21T09:11:20;52977.97;;;-139.96;33.34
7906;BME280;13291;40.472;-3.878;2023-04-21T09:13:47;52973.97;;;-139.96;33.52
7906;BME280;13291;40.472;-3.878;2023-04-21T09:16:15;52981.97;;;-139.96;33.69
7906;BME280;13291;40.472;-3.878;2023-04-21T09:18:43;52977.97;;;-139.96;33.64
7906;BME280;13291;40.472;-3.878;2023-04-21T09:21:11;53005.97;;;-139.96;33.07
7906;BME280;13291;40.472;-3.878;2023-04-21T09:23:45;52979.97;;;-139.96;33.41
7906;BME280;13291;40.472;-3.878;2023-04-21T09:26:13;52999.97;;;-139.96;33.92
7906;BME280;13291;40.472;-3.878;2023-04-21T09:28:40;52985.97;;;-139.96;33.54
7906;BME280;13291;40.472;-3.878;2023-04-21T09:31:15;52965.97;;;-139.96;33.39
7906;BME280;13291;40.472;-3.878;2023-04-21T09:33:45;52969.97;;;-139.96;33.55
7906;BME280;13291;40.472;-3.878;2023-04-21T09:36:17;52985.97;;;-139.96;33.20
7906;BME280;13291;40.472;-3.878;2023-04-21T09:38:54;52949.97;;;-139.96;33.46
7906;BME280;13291;40.472;-3.878;2023-04-21T09:41:22;52983.97;;;-139.96;33.40
7906;BME280;13291;40.472;-3.878;2023-04-21T09:43:49;52965.97;;;-139.96;33.63
7906;BME280;13291;40.472;-3.878;2023-04-21T09:46:16;52969.97;;;-139.96;33.12
7906;BME280;13291;40.472;-3.878;2023-04-21T09:48:46;52949.97;;;-139.96;32.21
7906;BME280;13291;40.472;-3.878;2023-04-21T09:51:14;52949.97;;;-139.96;32.40
7906;BME280;13291;40.472;-3.878;2023-04-21T09:53:41;52949.97;;;-139.96;33.51
7906;BME280;13291;40.472;-3.878;2023-04-21T09:56:12;52955.97;;;-139.96;33.42
7906;BME280;13291;40.472;-3.878;2023-04-21T09:58:43;52965.97;;;-139.96;33.16
7906;BME280;13291;40.472;-3.878;2023-04-21T10:01:12;52963.97;;;-139.96;33.15
7906;BME280;13291;40.472;-3.878;2023-04-21T10:03:40;52961.97;;;-139.96;33.24
7906;BME280;13291;40.472;-3.878;2023-04-21T10:06:10;52947.97;;;-139.96;33.47
7906;BME280;13291;40.472;-3.878;2023-04-21T10:08:37;52939.97;;;-139.96;33.71
7906;BME280;13291;40.472;-3.878;2023-04-21T10:11:06;52957.97;;;-139.96;32.62
7906;BME280;13291;40.472;-3.878;2023-04-21T10:13:38;52993.97;;;-139.96;32.94
7906;BME280;13291;40.472;-3.878;2023-04-21T10:16:08;52957.97;;;-139.96;32.75
7906;BME280;13291;40.472;-3.878;2023-04-21T10:18:35;52953.97;;;-139.96;32.95
7906;BME280;13291;40.472;-3.878;2023-04-21T10:21:06;52919.97;;;-139.96;32.79
7906;BME280;13291;40.472;-3.878;2023-04-21T10:23:38;52957.97;;;-139.96;33.06
7906;BME280;13291;40.472;-3.878;2023-04-21T10:26:08;52917.97;;;-139.96;33.15
7906;BME280;13291;40.472;-3.878;2023-04-21T10:28:45;52925.97;;;-139.96;32.35
7906;BME280;13291;40.472;-3.878;2023-04-21T10:31:22;52957.97;;;-139.96;32.02
7906;BME280;13291;40.472;-3.878;2023-04-21T10:34:13;52945.97;;;-139.96;32.88
7906;BME280;13291;40.472;-3.878;2023-04-21T10:37:08;52907.97;;;-139.96;32.39
7906;BME280;13291;40.472;-3.878;2023-04-21T10:39:43;52939.97;;;-139.96;31.80
7906;BME280;13291;40.472;-3.878;2023-04-21T10:42:20;52899.97;;;-139.96;31.66
7906;BME280;13291;40.472;-3.878;2023-04-21T10:45:11;52913.97;;;-139.96;30.72
7906;BME280;13291;40.472;-3.878;2023-04-21T10:47:43;52929.97;;;-139.96;30.74
7906;BME280;13291;40.472;-3.878;2023-04-21T10:50:16;52957.97;;;-139.96;30.82
7906;BME280;13291;40.472;-3.878;2023-04-21T10:52:44;52911.97;;;-139.96;30.37
7906;BME280;13291;40.472;-3.878;2023-04-21T10:55:11;52907.97;;;-139.96;30.34
7906;BME280;13291;40.472;-3.878;2023-04-21T10:57:41;52949.97;;;-139.96;30.49
7906;BME280;13291;40.472;-3.878;2023-04-21T11:00:13;52931.97;;;-139.96;29.50
7906;BME280;13291;40.472;-3.878;2023-04-21T11:02:41;52963.97;;;-139.96;29.55
7906;BME280;13291;40.472;-3.878;2023-04-21T11:05:08;52953.97;;;-139.96;29.90
7906;BME280;13291;40.472;-3.878;2023-04-21T11:07:35;52931.97;;;-139.96;29.76
7906;BME280;13291;40.472;-3.878;2023-04-21T11:10:03;52937.97;;;-139.96;29.25
7906;BME280;13291;40.472;-3.878;2023-04-21T11:12:31;52935.97;;;-139.96;29.30
7906;BME280;13291;40.472;-3.878;2023-04-21T11:15:01;52915.97;;;-139.96;28.75
7906;BME280;13291;40.472;-3.878;2023-04-21T11:17:30;52901.97;;;-139.96;28.59
7906;BME280;13291;40.472;-3.878;2023-04-21T11:19:57;52921.97;;;-139.96;28.70
7906;BME280;13291;40.472;-3.878;2023-04-21T11:22:25;52915.97;;;-139.96;28.76
7906;BME280;13291;40.472;-3.878;2023-04-21T11:24:53;52925.97;;;-139.96;28.50
7906;BME280;13291;40.472;-3.878;2023-04-21T11:27:20;52913.97;;;-139.96;28.42
7906;BME280;13291;40.472;-3.878;2023-04-21T11:29:48;52903.97;;;-139.96;28.45
7906;BME280;13291;40.472;-3.878;2023-04-21T11:32:15;52917.97;;;-139.96;28.68
7906;BME280;13291;40.472;-3.878;2023-04-21T11:34:44;52905.97;;;-139.96;29.20
7906;BME280;13291;40.472;-3.878;2023-04-21T11:37:14;52895.97;;;-139.96;28.46
7906;BME280;13291;40.472;-3.878;2023-04-21T11:39:41;52899.97;;;-139.96;29.53
7906;BME280;13291;40.472;-3.878;2023-04-21T11:42:09;52897.97;;;-139.96;28.80
7906;BME280;13291;40.472;-3.878;2023-04-21T11:44:38;52929.97;;;-139.96;28.67
7906;BME280;13291;40.472;-3.878;2023-04-21T11:47:13;52929.97;;;-139.96;28.67
7906;BME280;13291;40.472;-3.878;2023-04-21T11:49:45;52913.97;;;-139.96;28.17
7906;BME280;13291;40.472;-3.878;2023-04-21T11:52:23;52905.97;;;-139.96;29.00
7906;BME280;13291;40.472;-3.878;2023-04-21T11:54:58;52937.97;;;-139.96;28.79
7906;BME280;13291;40.472;-3.878;2023-04-21T11:57:26;52919.97;;;-139.96;28.74
7906;BME280;13291;40.472;-3.878;2023-04-21T11:59:53;52943.97;;;-139.96;28.97
7906;BME280;13291;40.472;-3.878;2023-04-21T12:02:25;52915.97;;;-139.96;28.94
7906;BME280;13291;40.472;-3.878;2023-04-21T12:04:58;52877.97;;;-139.96;28.67
7906;BME280;13291;40.472;-3.878;2023-04-21T12:07:27;52897.97;;;-139.96;28.75
7906;BME280;13291;40.472;-3.878;2023-04-21T12:09:54;52899.97;;;-139.96;28.91
7906;BME280;13291;40.472;-3.878;2023-04-21T12:12:21;52917.97;;;-139.96;28.86
7906;BME280;13291;40.472;-3.878;2023-04-21T12:14:49;52877.97;;;-139.96;28.33
7906;BME280;13291;40.472;-3.878;2023-04-21T12:17:17;52901.97;;;-139.96;28.47
7906;BME280;13291;40.472;-3.878;2023-04-21T12:19:44;52901.97;;;-139.96;29.13
7906;BME280;13291;40.472;-3.878;2023-04-21T12:22:13;52867.97;;;-139.96;28.74
7906;BME280;13291;40.472;-3.878;2023-04-21T12:24:42;52889.97;;;-139.96;28.88
7906;BME280;13291;40.472;-3.878;2023-04-21T12:27:09;52889.97;;;-139.96;28.58
7906;BME280;13291;40.472;-3.878;2023-04-21T12:29:36;52881.97;;;-139.96;28.57
7906;BME280;13291;40.472;-3.878;2023-04-21T12:32:03;52897.97;;;-139.96;28.87
7906;BME280;13291;40.472;-3.878;2023-04-21T12:34:30;52897.97;;;-139.96;29.08
7906;BME280;13291;40.472;-3.878;2023-04-21T12:36:57;52893.97;;;-139.96;28.67
7906;BME280;13291;40.472;-3.878;2023-04-21T12:39:26;52889.97;;;-139.96;28.58
7906;BME280;13291;40.472;-3.878;2023-04-21T12:41:53;52919.97;;;-139.96;28.55
7906;BME280;13291;40.472;-3.878;2023-04-21T12:44:20;52897.97;;;-139.96;28.64